Station: Pws A  

  Atmospheric Gas Attenuation - ITU Rec 676-11   ----------------- dB/100km -----------------
Date Time Temp RH % AH g/m3 Dew Point Wind Direction Speed kph Gust kph Barometer mB Rainfall Since 9am 24GHz 47GHz 76GHz 122GHz 134GHz 241GHz
08/05 12:00 8.5 100 8.54 8.5 0 0 1013.1 0.4 19.7 27.4 42.3 111.1 104.6 359.3
08/05 11:00 8.4 100 8.49 8.4 0 0 1013.1 0.2 19.6 27.3 42.1 110.7 104.0 357.3
08/05 10:00 7.7 100 8.11 7.7 0 0 1013.1 0.2 18.8 26.9 40.9 107.3 99.5 341.7
08/05 09:00 7.3 99 7.83 7.2 0 0 1013.1 17.2 18.2 26.5 39.9 104.6 96.1 329.6
08/05 08:00 6.7 100 7.6 6.7 0 2 1013.1 17 17.8 26.3 39.2 102.8 93.6 320.8
08/05 07:00 6.6 100 7.55 6.6 0 0 1013.1 17 17.7 26.3 39.0 102.4 93.0 318.8
08/05 06:00 6.7 99 7.53 6.6 2 9 1013.1 16.8 17.6 26.2 38.9 102.0 92.6 317.4
08/05 05:00 6.6 99 7.48 6.4 0 0 1013.1 16.4 17.5 26.1 38.7 101.6 92.1 315.3
08/05 04:00 6.7 99 7.53 6.6 2 6 1013.1 16.2 17.6 26.2 38.9 102.0 92.6 317.4
08/05 02:00 7.3 99 7.83 7.1 0 2 1013.1 14.4 18.2 26.5 39.9 104.6 96.1 329.6
08/05 01:00 7.3 98 7.75 7 0 2 1013.1 12.8 18.1 26.4 39.5 103.7 95.0 325.7
08/05 00:00 8.3 99 8.35 8.1 2 7 1013.1 12.6 19.3 27.1 41.6 109.2 102.1 350.8
07/05 23:00 9.2 99 8.84 9 2 4 1013.1 11.4 20.3 27.7 43.2 113.5 107.8 370.9
07/05 22:00 8.9 99 8.68 8.8 2 7 1013.1 10.2 20.0 27.5 42.7 112.1 106.0 364.4
07/05 21:00 8.4 100 8.49 8.4 0 2 1013.1 9 19.6 27.3 42.1 110.7 104.0 357.3
07/05 18:00 5.3 99 6.87 5.2 0 0 1013.1 3.6 16.3 25.5 36.8 96.3 85.1 290.6
07/05 17:00 4.8 98 6.58 4.5 0 0 1013.1 2 15.6 25.1 35.8 93.7 81.6 278.4
07/05 16:00 5 97 6.6 4.5 0 0 1013.1 0.8 15.7 25.1 35.8 93.7 81.7 278.6
07/05 15:00 5.9 94 6.78 5 0 0 1013.1 0 16.0 25.2 36.1 94.6 83.2 284.1
07/05 14:00 5.7 91 6.48 4.3 0 4 1013.1 0 15.4 24.7 35.0 91.5 79.3 270.4
07/05 12:00 5.2 97 6.68 4.7 0 0 1013.1 0 15.8 25.2 36.0 94.3 82.5 281.8
07/05 11:00 4.6 100 6.62 4.6 0 0 1013.1 0 15.7 25.3 36.1 94.4 82.4 281.1
07/05 10:00 3.7 100 6.24 3.7 0 0 1013.1 0 15.0 24.9 34.9 91.2 78.0 265.8
07/05 09:00 2.7 100 5.83 2.7 0 0 1013.1 25.4 14.1 24.5 33.6 87.8 73.4 249.2
07/05 08:00 1.2 100 5.27 1.2 0 0 1013.1 25.2 12.9 23.9 31.9 83.2 67.0 226.8
07/05 06:00 1.7 100 5.45 1.7 0 0 1013.1 25 13.3 24.1 32.4 84.6 69.1 234.0
07/05 05:00 1.7 100 5.45 1.7 0 0 1013.1 23.8 13.3 24.1 32.4 84.6 69.1 234.0
07/05 03:00 3.1 100 5.99 3.1 0 0 1013.1 21.8 14.4 24.6 34.1 89.1 75.2 255.7
07/05 02:00 3.1 100 5.99 3.1 0 0 1013.1 19.8 14.4 24.6 34.1 89.1 75.2 255.7
07/05 00:00 3.2 99 5.97 3.1 0 0 1013.1 18.6 14.4 24.6 34.0 88.8 74.8 254.4
06/05 21:00 4.1 99 6.34 4 0 0 1013.1 15.4 15.2 24.9 35.1 91.9 79.0 269.2
06/05 20:00 5.5 100 7.03 5.5 0 0 1013.1 13.4 16.6 25.7 37.4 97.9 87.1 297.7
06/05 19:00 5.4 99 6.91 5.3 0 0 1013.1 13.2 16.3 25.5 36.9 96.7 85.5 292.2
06/05 17:00 5.9 98 7.07 5.6 0 0 1013.1 10.2 16.7 25.6 37.4 97.8 87.2 298.1
06/05 16:00 7.7 96 7.79 7.1 2 2 1013.1 8.8 18.1 26.3 39.5 103.6 95.1 325.9
06/05 14:00 12.2 88 9.5 10.3 0 2 1013.1 2 21.6 27.9 44.4 116.6 112.8 388.7
06/05 13:00 12.3 92 9.99 11 0 2 1013.1 2 22.7 28.7 46.4 122.1 119.5 412.2
06/05 12:00 10.4 97 9.35 10 2 4 1013.1 2 21.4 28.2 44.7 117.6 113.4 390.3
06/05 11:00 10.8 98 9.69 10.5 0 2 1013.1 1.6 22.1 28.7 46.0 120.9 117.6 405.2
06/05 08:00 9.4 100 9.05 9.4 0 0 1013.1 3.2 20.8 28.0 44.0 115.7 110.5 380.4
06/05 06:00 9.6 99 9.07 9.5 0 0 1013.1 2.4 20.8 28.0 44.0 115.6 110.5 380.4
06/05 05:00 9.5 100 9.1 9.5 0 0 1013.1 2.2 20.9 28.0 44.2 116.1 111.1 382.4
06/05 04:00 9.6 100 9.16 9.6 0 0 1013.1 2 21.0 28.1 44.4 116.6 111.8 384.9
06/05 03:00 9.5 100 9.1 9.5 0 2 1013.1 1.6 20.9 28.0 44.2 116.1 111.1 382.4
06/05 02:00 9.7 100 9.22 9.7 0 0 1013.1 1.6 21.1 28.2 44.6 117.2 112.5 387.4
06/05 01:00 9.6 100 9.16 9.6 0 0 1013.1 1.2 21.0 28.1 44.4 116.6 111.8 384.9
05/05 23:00 8.9 99 8.68 8.8 0 0 1013.1 0.4 20.0 27.5 42.7 112.1 106.0 364.4
05/05 22:00 9 99 8.73 8.8 0 2 1013.1 0.4 20.1 27.6 42.9 112.6 106.6 366.4
05/05 21:00 8.9 99 8.68 8.7 0 0 1013.1 0.4 20.0 27.5 42.7 112.1 106.0 364.4
05/05 20:00 8.9 99 8.68 8.7 0 0 1013.1 0.2 20.0 27.5 42.7 112.1 106.0 364.4
05/05 19:00 8.9 98 8.59 8.6 0 0 1013.1 0.2 19.8 27.3 42.3 111.1 104.7 359.9
05/05 18:00 9 97 8.55 8.5 0 0 1013.1 0.2 19.7 27.2 42.1 110.5 104.0 357.5
05/05 17:00 9.4 95 8.59 8.6 0 0 1013.1 0.2 19.8 27.2 42.0 110.4 104.0 357.6
05/05 16:00 9.4 92 8.32 8.2 0 0 1013.1 0.2 19.2 26.7 40.9 107.3 100.3 344.4
05/05 15:00 9.6 90 8.25 8.1 0 0 1013.1 0.2 19.0 26.6 40.5 106.3 99.0 340.1
05/05 14:00 10.2 95 9.04 9.5 0 0 1013.1 0.2 20.7 27.7 43.5 114.4 109.3 376.0
05/05 12:00 12.9 92 10.37 11.7 0 0 1013.1 0.2 23.4 29.1 47.7 125.5 124.0 427.8
05/05 09:00 9.8 100 9.28 9.8 0 0 1013.1 3.2 21.3 28.3 44.8 117.7 113.2 389.9
05/05 08:00 9 99 8.73 8.9 0 0 1013.1 2.8 20.1 27.6 42.9 112.6 106.6 366.4
05/05 06:00 8.7 100 8.65 8.7 0 0 1013.1 2 19.9 27.5 42.7 112.1 105.8 363.8
05/05 05:00 8.8 100 8.71 8.8 0 0 1013.1 1.6 20.1 27.6 42.9 112.6 106.6 366.4
05/05 04:00 8.9 100 8.76 8.9 0 0 1013.1 1.4 20.2 27.6 43.0 113.0 107.1 368.4
05/05 03:00 8.7 100 8.65 8.7 0 0 1013.1 1.2 19.9 27.5 42.7 112.1 105.8 363.8
05/05 01:00 8.6 99 8.51 8.5 0 0 1013.1 1.2 19.7 27.3 42.1 110.6 104.0 357.4
05/05 00:00 8.9 100 8.76 8.9 0 0 1013.1 1.2 20.2 27.6 43.0 113.0 107.1 368.4
04/05 23:00 9.4 100 9.05 9.4 0 0 1013.1 1.2 20.8 28.0 44.0 115.7 110.5 380.4
04/05 22:00 9.6 100 9.16 9.6 0 0 1013.1 1.2 21.0 28.1 44.4 116.6 111.8 384.9
04/05 20:00 10.1 99 9.36 9.9 0 0 1013.1 0.6 21.4 28.3 45.0 118.2 113.9 392.4
04/05 18:00 10.3 97 9.29 9.9 0 0 1013.1 0.4 21.3 28.1 44.5 117.1 112.6 387.9
04/05 17:00 11.1 94 9.47 10.2 0 0 1013.1 0.4 21.6 28.2 44.9 117.9 114.0 392.7
04/05 15:00 13 93 10.55 11.9 0 0 1013.1 0.4 23.8 29.4 48.4 127.4 126.4 436.2
04/05 14:00 13 94 10.66 12.1 0 0 1013.1 0 24.1 29.6 48.9 128.7 128.0 441.8
04/05 12:00 11.9 100 10.59 11.9 0 0 1013.1 0 24.0 29.9 49.3 129.7 128.8 444.6
04/05 11:00 9.3 100 8.99 9.3 0 0 1013.1 0 20.7 27.9 43.8 115.1 109.8 377.9
04/05 10:00 7.9 100 8.22 7.9 0 0 1013.1 0 19.1 27.0 41.2 108.3 100.8 346.2
04/05 08:00 6.7 100 7.6 6.7 0 0 1013.1 3 17.8 26.3 39.2 102.8 93.6 320.8
04/05 06:00 7 100 7.75 7 0 0 1013.1 3 18.1 26.5 39.7 104.1 95.4 326.9
04/05 05:00 7.6 100 8.06 7.6 0 0 1013.1 3 18.7 26.8 40.7 106.8 99.0 339.6
04/05 03:00 8 100 8.27 8 0 0 1013.1 3 19.2 27.1 41.4 108.7 101.4 348.2
04/05 02:00 8.4 100 8.49 8.4 0 0 1013.1 2.8 19.6 27.3 42.1 110.7 104.0 357.3
04/05 01:00 8.9 99 8.68 8.8 0 0 1013.1 2.8 20.0 27.5 42.7 112.1 106.0 364.4
04/05 00:00 9.6 99 9.07 9.4 0 0 1013.1 2.8 20.8 28.0 44.0 115.6 110.5 380.4
03/05 23:00 10.6 99 9.66 10.4 0 0 1013.1 2.8 22.0 28.7 46.0 120.9 117.5 404.8
03/05 22:00 11.8 100 10.53 11.8 0 0 1013.1 2.8 23.8 29.8 49.1 129.2 128.1 442.1
03/05 20:00 12.6 100 11.06 12.6 0 0 1013.1 2.8 24.9 30.5 50.9 134.1 134.5 464.4
03/05 19:00 13.3 100 11.55 13.3 0 0 1013.1 2.8 26.0 31.1 52.6 138.7 140.4 485.2
03/05 18:00 13.9 100 11.99 13.9 0 0 1013.1 2.8 26.9 31.7 54.2 142.9 145.8 504.0
03/05 17:00 14.5 100 12.44 14.5 0 0 1013.1 2.8 27.8 32.3 55.8 147.2 151.3 523.3
03/05 16:00 14.4 99 12.24 14.3 0 0 1013.1 2.8 27.4 31.9 55.0 144.9 148.5 513.6
03/05 13:00 17.5 90 13.42 15.8 0 0 1013.1 0.6 29.7 32.9 58.0 153.1 159.6 552.8
03/05 12:00 17.4 91 13.49 16 0 0 1013.1 0.6 29.9 33.1 58.4 154.1 160.9 557.1
03/05 11:00 13.8 99 11.8 13.7 0 0 1013.1 0.6 26.5 31.4 53.4 140.8 143.1 494.8
03/05 10:00 13.2 99 11.37 13 0 0 1013.1 0.4 25.6 30.8 51.9 136.7 137.9 476.6
03/05 08:00 11 94 9.41 10.1 0 0 1013.1 0 21.5 28.1 44.7 117.4 113.3 390.3
03/05 07:00 10.7 95 9.33 9.9 0 0 1013.1 0 21.3 28.1 44.5 116.9 112.6 387.8
03/05 06:00 10.6 95 9.27 9.9 0 0 1013.1 0 21.2 28.0 44.3 116.4 111.9 385.4
03/05 05:00 10.6 94 9.18 9.7 0 0 1013.1 0 21.0 27.8 43.9 115.4 110.6 380.9
03/05 04:00 10.8 93 9.19 9.8 0 0 1013.1 0 21.0 27.8 43.8 115.2 110.5 380.4
03/05 02:00 11.2 92 9.33 9.9 0 2 1013.1 0 21.3 27.9 44.2 116.2 111.9 385.3
03/05 01:00 10.8 92 9.1 9.5 0 0 1013.1 0 20.8 27.6 43.4 114.2 109.2 376.0

Last Refresh: 08-May-2026 12:09:35

Bureau of Meteorology